Time;durP1;ratioP1;P1;durP2;ratioP2;P2;SDS_P1;SDS_P2;PMS_P1;PMS_P2;Temp;Humidity;BMP_temperature;BMP_pressure;BME280_temperature;BME280_humidity;BME280_pressure;Samples;Min_cycle;Max_cycle;Signal;HPM_P1;HPM_P2
2023/10/22 00:02:06;;;;;;;3.33;0.82;;;;;;;;;;5069791;28;20502;-74
2023/10/22 00:04:32;;;;;;;5.57;1.20;;;;;;;;;;5071005;28;20093;-73
2023/10/22 00:06:58;;;;;;;5.18;1.10;;;;;;;;;;5069469;28;20040;-73
2023/10/22 00:09:24;;;;;;;3.97;1.10;;;;;;;;;;5071275;28;20032;-73
2023/10/22 00:11:50;;;;;;;3.45;1.00;;;;;;;;;;5067142;28;20046;-74
2023/10/22 00:14:16;;;;;;;4.00;0.93;;;;;;;;;;5068659;28;20040;-74
2023/10/22 00:16:42;;;;;;;3.88;1.15;;;;;;;;;;5068881;28;20402;-74
2023/10/22 00:19:09;;;;;;;4.93;1.15;;;;;;;;;;5070089;28;20508;-74
2023/10/22 00:21:35;;;;;;;3.03;1.55;;;;;;;;;;5070065;28;20040;-74
2023/10/22 00:24:01;;;;;;;3.25;0.90;;;;;;;;;;5074760;28;20048;-74
2023/10/22 00:26:27;;;;;;;4.38;1.20;;;;;;;;;;5074382;28;20383;-74
2023/10/22 00:28:53;;;;;;;5.10;1.55;;;;;;;;;;5073964;28;20119;-74
2023/10/22 00:31:19;;;;;;;2.53;1.10;;;;;;;;;;5075198;28;20135;-74
2023/10/22 00:33:45;;;;;;;4.35;0.90;;;;;;;;;;5074628;28;20111;-74
2023/10/22 00:36:11;;;;;;;4.70;1.00;;;;;;;;;;5073929;28;20032;-74
2023/10/22 00:38:37;;;;;;;3.88;1.20;;;;;;;;;;5074131;28;20032;-74
2023/10/22 00:41:03;;;;;;;3.17;1.20;;;;;;;;;;5074846;28;20107;-74
2023/10/22 00:43:29;;;;;;;4.32;1.10;;;;;;;;;;5074551;28;20383;-74
2023/10/22 00:45:55;;;;;;;5.13;0.95;;;;;;;;;;5072187;28;20055;-74
2023/10/22 00:48:22;;;;;;;5.10;1.10;;;;;;;;;;5074215;28;20399;-74
2023/10/22 00:50:48;;;;;;;4.63;0.90;;;;;;;;;;5073794;28;20036;-74
2023/10/22 00:53:16;;;;;;;4.45;1.00;;;;;;;;;;5073914;28;20546;-74
2023/10/22 00:55:45;;;;;;;4.13;1.05;;;;;;;;;;5073615;28;20037;-74
2023/10/22 00:58:11;;;;;;;4.20;0.93;;;;;;;;;;5074912;28;20609;-74
2023/10/22 01:00:37;;;;;;;4.38;0.95;;;;;;;;;;5073267;28;20497;-74
2023/10/22 01:03:03;;;;;;;6.03;0.98;;;;;;;;;;5066414;28;20442;-74
2023/10/22 01:05:30;;;;;;;5.30;0.98;;;;;;;;;;5074340;28;20040;-74
2023/10/22 01:07:56;;;;;;;3.97;0.93;;;;;;;;;;5071691;28;20032;-74
2023/10/22 01:10:22;;;;;;;3.47;0.90;;;;;;;;;;5073164;28;20035;-74
2023/10/22 01:12:48;;;;;;;7.43;1.10;;;;;;;;;;5074598;28;20175;-74
2023/10/22 01:15:17;;;;;;;4.47;1.15;;;;;;;;;;5074627;28;20480;-74
2023/10/22 01:17:43;;;;;;;3.22;0.80;;;;;;;;;;5070717;28;20052;-74
2023/10/22 01:20:09;;;;;;;3.05;0.88;;;;;;;;;;5073873;28;20040;-74
2023/10/22 01:22:35;;;;;;;5.65;1.52;;;;;;;;;;5073583;28;20037;-74
2023/10/22 01:25:02;;;;;;;3.90;0.90;;;;;;;;;;5073852;28;20135;-74
2023/10/22 01:27:28;;;;;;;3.10;1.00;;;;;;;;;;5072237;28;20041;-74
2023/10/22 01:29:54;;;;;;;3.97;0.95;;;;;;;;;;5068260;28;20033;-74
2023/10/22 01:32:20;;;;;;;4.85;0.95;;;;;;;;;;5073397;28;20493;-74
2023/10/22 01:34:46;;;;;;;4.10;0.80;;;;;;;;;;5072971;28;20039;-74
2023/10/22 01:37:12;;;;;;;3.40;0.90;;;;;;;;;;5073852;28;20043;-74
2023/10/22 01:39:38;;;;;;;4.25;0.80;;;;;;;;;;5072862;28;20040;-74
2023/10/22 01:42:04;;;;;;;3.58;1.25;;;;;;;;;;5071995;28;20578;-74
2023/10/22 01:44:30;;;;;;;3.28;1.00;;;;;;;;;;5074077;28;20430;-74
2023/10/22 01:46:56;;;;;;;3.55;1.00;;;;;;;;;;5072661;28;20481;-74
2023/10/22 01:49:22;;;;;;;2.67;0.88;;;;;;;;;;5070301;28;20049;-74
2023/10/22 01:51:49;;;;;;;3.97;0.80;;;;;;;;;;5070222;28;20052;-74
2023/10/22 01:54:15;;;;;;;4.63;1.17;;;;;;;;;;5073623;28;20101;-74
2023/10/22 01:56:41;;;;;;;2.10;0.82;;;;;;;;;;5073659;28;20039;-74
2023/10/22 01:59:07;;;;;;;5.43;0.98;;;;;;;;;;5072289;28;20124;-74
2023/10/22 02:01:33;;;;;;;3.20;1.00;;;;;;;;;;5067665;28;20119;-74
2023/10/22 02:03:59;;;;;;;3.15;1.00;;;;;;;;;;5071936;28;20241;-73
2023/10/22 02:06:25;;;;;;;6.15;1.30;;;;;;;;;;5067850;28;20036;-73
2023/10/22 02:08:51;;;;;;;4.38;0.90;;;;;;;;;;5070281;28;20536;-73
2023/10/22 02:11:18;;;;;;;4.80;1.13;;;;;;;;;;5073988;28;20478;-73
2023/10/22 02:13:44;;;;;;;3.83;1.05;;;;;;;;;;5070488;28;20044;-73
2023/10/22 02:16:10;;;;;;;2.80;0.88;;;;;;;;;;5071437;28;20546;-73
2023/10/22 02:18:36;;;;;;;2.55;0.95;;;;;;;;;;5072673;28;20040;-73
2023/10/22 02:21:05;;;;;;;4.97;1.30;;;;;;;;;;5070682;28;20454;-73
2023/10/22 02:23:32;;;;;;;3.10;1.10;;;;;;;;;;5066922;28;20041;-73
2023/10/22 02:25:58;;;;;;;4.68;1.67;;;;;;;;;;5072475;28;20128;-73
2023/10/22 02:28:24;;;;;;;5.95;1.00;;;;;;;;;;5071701;28;20124;-73
2023/10/22 02:30:50;;;;;;;3.05;0.93;;;;;;;;;;5070729;28;20510;-74
2023/10/22 02:33:17;;;;;;;4.88;1.02;;;;;;;;;;5072943;28;20141;-74
2023/10/22 02:35:43;;;;;;;4.00;0.95;;;;;;;;;;5072055;28;20052;-74
2023/10/22 02:38:12;;;;;;;3.28;1.00;;;;;;;;;;5068607;28;20050;-74
2023/10/22 02:40:38;;;;;;;6.13;1.50;;;;;;;;;;5072350;28;20090;-74
2023/10/22 02:43:04;;;;;;;4.97;1.20;;;;;;;;;;5070876;28;20036;-74
2023/10/22 02:45:30;;;;;;;4.35;1.10;;;;;;;;;;5070811;28;20036;-74
2023/10/22 02:47:57;;;;;;;2.45;0.80;;;;;;;;;;5063805;28;20496;-74
2023/10/22 02:50:24;;;;;;;4.50;1.08;;;;;;;;;;5072556;28;20092;-74
2023/10/22 02:52:50;;;;;;;3.92;0.80;;;;;;;;;;5071386;28;20055;-74
2023/10/22 02:55:17;;;;;;;2.40;0.77;;;;;;;;;;5070594;28;20438;-74
2023/10/22 02:57:43;;;;;;;2.03;1.02;;;;;;;;;;5071911;28;20368;-74
2023/10/22 03:00:10;;;;;;;5.85;1.10;;;;;;;;;;5071243;28;20043;-74
2023/10/22 03:02:39;;;;;;;6.18;1.02;;;;;;;;;;5071880;28;20094;-74
2023/10/22 03:05:06;;;;;;;3.17;1.10;;;;;;;;;;5072777;28;20387;-74
2023/10/22 03:07:32;;;;;;;5.85;1.00;;;;;;;;;;5070793;28;20072;-74
2023/10/22 03:09:58;;;;;;;3.25;1.23;;;;;;;;;;5070735;28;20045;-74
2023/10/22 03:12:24;;;;;;;3.78;1.20;;;;;;;;;;5069948;28;20036;-74
2023/10/22 03:14:53;;;;;;;3.35;1.05;;;;;;;;;;5072577;28;20032;-74
2023/10/22 03:17:19;;;;;;;2.53;0.80;;;;;;;;;;5070659;28;20032;-74
2023/10/22 03:19:46;;;;;;;3.25;1.00;;;;;;;;;;5070719;28;20044;-74
2023/10/22 03:22:13;;;;;;;3.95;0.80;;;;;;;;;;5071636;28;20072;-74
2023/10/22 03:24:39;;;;;;;5.32;1.10;;;;;;;;;;5071061;28;20048;-74
2023/10/22 03:27:05;;;;;;;5.47;1.05;;;;;;;;;;5071703;28;20466;-74
2023/10/22 03:29:31;;;;;;;2.50;0.80;;;;;;;;;;5071686;28;20044;-74
2023/10/22 03:31:57;;;;;;;3.90;1.13;;;;;;;;;;5070866;28;20079;-74
2023/10/22 03:34:24;;;;;;;3.45;1.02;;;;;;;;;;5072268;28;20086;-73
2023/10/22 03:36:50;;;;;;;4.07;1.00;;;;;;;;;;5070140;28;20040;-73
2023/10/22 03:39:17;;;;;;;1.90;1.00;;;;;;;;;;5068917;28;20037;-73
2023/10/22 03:41:43;;;;;;;2.80;1.00;;;;;;;;;;5083915;22;20048;-73
2023/10/22 03:44:09;;;;;;;2.30;0.80;;;;;;;;;;5069599;28;20521;-72
2023/10/22 03:46:35;;;;;;;3.50;1.35;;;;;;;;;;5066699;28;20040;-72
2023/10/22 03:49:01;;;;;;;4.63;1.17;;;;;;;;;;5069439;28;20048;-72
2023/10/22 03:51:27;;;;;;;4.65;1.48;;;;;;;;;;5069644;28;20070;-72
2023/10/22 03:53:53;;;;;;;3.83;1.02;;;;;;;;;;5071636;28;20039;-74
2023/10/22 03:56:20;;;;;;;2.67;1.45;;;;;;;;;;5068131;28;20040;-74
2023/10/22 03:58:46;;;;;;;2.78;1.17;;;;;;;;;;5069514;28;20032;-74
2023/10/22 04:01:12;;;;;;;3.45;1.23;;;;;;;;;;5064482;28;20399;-74
2023/10/22 04:03:38;;;;;;;1.92;1.00;;;;;;;;;;5061838;28;20036;-74
2023/10/22 04:06:04;;;;;;;6.25;1.50;;;;;;;;;;5068621;28;20040;-74
2023/10/22 04:08:30;;;;;;;1.90;1.20;;;;;;;;;;5068961;28;20458;-74
2023/10/22 04:10:56;;;;;;;1.70;1.13;;;;;;;;;;5068596;28;20127;-74
2023/10/22 04:13:23;;;;;;;3.35;1.20;;;;;;;;;;5070719;28;20414;-73
2023/10/22 04:15:49;;;;;;;4.03;1.15;;;;;;;;;;5070290;28;20508;-73
2023/10/22 04:18:19;;;;;;;3.03;1.40;;;;;;;;;;5068512;28;20041;-74
2023/10/22 04:20:45;;;;;;;4.00;1.45;;;;;;;;;;5069294;28;20101;-74
2023/10/22 04:23:11;;;;;;;3.42;1.52;;;;;;;;;;5069684;28;20048;-74
2023/10/22 04:25:43;;;;;;;3.88;1.08;;;;;;;;;;5071894;28;20043;-74
2023/10/22 04:28:08;;;;;;;1.65;1.00;;;;;;;;;;5061373;28;20056;-75
2023/10/22 04:30:38;;;;;;;2.20;1.30;;;;;;;;;;5069021;28;20032;-75
2023/10/22 04:33:05;;;;;;;2.88;1.23;;;;;;;;;;5069351;28;20051;-74
2023/10/22 04:35:32;;;;;;;4.10;1.23;;;;;;;;;;5071049;28;20036;-74
2023/10/22 04:37:59;;;;;;;4.15;1.33;;;;;;;;;;5070768;28;20040;-74
2023/10/22 04:40:28;;;;;;;3.28;1.27;;;;;;;;;;5066928;28;20043;-74
2023/10/22 04:42:57;;;;;;;4.35;1.40;;;;;;;;;;5067825;28;20043;-74
2023/10/22 04:45:23;;;;;;;2.60;1.30;;;;;;;;;;5062079;28;20559;-74
2023/10/22 04:47:49;;;;;;;3.08;1.38;;;;;;;;;;5064973;28;20178;-74
2023/10/22 04:50:15;;;;;;;2.75;1.50;;;;;;;;;;5065210;28;20086;-74
2023/10/22 04:52:41;;;;;;;2.97;1.50;;;;;;;;;;5068797;28;20032;-75
2023/10/22 04:55:07;;;;;;;4.63;1.73;;;;;;;;;;5070586;28;20093;-74
2023/10/22 04:57:33;;;;;;;3.90;1.42;;;;;;;;;;5068285;28;20398;-74
2023/10/22 04:59:59;;;;;;;3.00;1.30;;;;;;;;;;5071276;28;20040;-74
2023/10/22 05:02:25;;;;;;;3.30;1.20;;;;;;;;;;5062858;28;20047;-75
2023/10/22 05:04:51;;;;;;;3.55;1.40;;;;;;;;;;5070548;28;20491;-75
2023/10/22 05:07:17;;;;;;;1.67;1.30;;;;;;;;;;5073285;28;20056;-74
2023/10/22 05:09:45;;;;;;;2.35;1.27;;;;;;;;;;5072471;28;20098;-74
2023/10/22 05:12:11;;;;;;;1.48;1.38;;;;;;;;;;5074342;28;20139;-74
2023/10/22 05:14:37;;;;;;;1.50;1.40;;;;;;;;;;5074337;28;20111;-74
2023/10/22 05:17:05;;;;;;;3.40;1.58;;;;;;;;;;5071810;28;20033;-74
2023/10/22 05:19:31;;;;;;;2.63;1.45;;;;;;;;;;5074510;28;20486;-74
2023/10/22 05:21:57;;;;;;;2.30;1.60;;;;;;;;;;5073567;28;20040;-74
2023/10/22 05:24:23;;;;;;;1.60;1.17;;;;;;;;;;5072901;28;20132;-74
2023/10/22 05:26:49;;;;;;;2.15;1.30;;;;;;;;;;5070782;28;20055;-74
2023/10/22 05:29:15;;;;;;;1.83;1.40;;;;;;;;;;5076118;28;20040;-75
2023/10/22 05:31:41;;;;;;;3.08;1.17;;;;;;;;;;5078948;28;20055;-75
2023/10/22 05:34:07;;;;;;;1.98;1.17;;;;;;;;;;5068559;28;20044;-76
2023/10/22 05:36:33;;;;;;;1.33;1.23;;;;;;;;;;5077384;28;20040;-76
2023/10/22 05:38:59;;;;;;;2.65;1.20;;;;;;;;;;5075600;28;20537;-76
2023/10/22 05:41:26;;;;;;;2.10;1.30;;;;;;;;;;5073901;28;20114;-76
2023/10/22 05:43:56;;;;;;;1.35;1.13;;;;;;;;;;5081788;28;20055;-75
2023/10/22 05:46:29;;;;;;;1.08;1.02;;;;;;;;;;5072233;28;20039;-75
2023/10/22 05:49:05;;;;;;;1.65;0.90;;;;;;;;;;5073439;28;20032;-76
2023/10/22 05:51:32;;;;;;;1.25;1.05;;;;;;;;;;5078209;28;20131;-75
2023/10/22 05:53:58;;;;;;;1.85;1.13;;;;;;;;;;5082055;28;20036;-75
2023/10/22 05:56:26;;;;;;;1.52;1.15;;;;;;;;;;5065362;28;20040;-75
2023/10/22 05:58:52;;;;;;;1.42;1.17;;;;;;;;;;5072143;28;20041;-75
2023/10/22 06:01:18;;;;;;;1.30;1.05;;;;;;;;;;5079351;28;20044;-75
2023/10/22 06:03:44;;;;;;;1.38;0.90;;;;;;;;;;5078152;28;20516;-75
2023/10/22 06:06:10;;;;;;;1.17;1.08;;;;;;;;;;5074004;28;20051;-75
2023/10/22 06:08:48;;;;;;;2.50;1.08;;;;;;;;;;5054955;28;20094;-75
2023/10/22 06:11:14;;;;;;;1.42;0.98;;;;;;;;;;5070462;28;20506;-75
2023/10/22 06:13:41;;;;;;;1.40;1.10;;;;;;;;;;5058346;28;20044;-74
2023/10/22 06:16:10;;;;;;;3.55;1.40;;;;;;;;;;5066641;28;20028;-74
2023/10/22 06:18:36;;;;;;;1.98;1.10;;;;;;;;;;5071632;28;20036;-74
2023/10/22 06:21:12;;;;;;;1.80;1.25;;;;;;;;;;5067095;28;20047;-74
2023/10/22 06:23:38;;;;;;;4.10;1.50;;;;;;;;;;5061628;28;20179;-76
2023/10/22 06:26:04;;;;;;;2.90;1.75;;;;;;;;;;5062660;28;20127;-75
2023/10/22 06:28:31;;;;;;;4.93;1.70;;;;;;;;;;5061079;28;20039;-75
2023/10/22 06:31:07;;;;;;;3.97;1.98;;;;;;;;;;5058992;28;20048;-75
2023/10/22 06:33:34;;;;;;;3.88;2.50;;;;;;;;;;5064924;28;20042;-75
2023/10/22 06:36:00;;;;;;;5.45;2.45;;;;;;;;;;5060890;28;20158;-75
2023/10/22 06:38:26;;;;;;;7.38;2.60;;;;;;;;;;5060325;28;20038;-75
2023/10/22 06:40:52;;;;;;;5.35;2.92;;;;;;;;;;5064622;28;20458;-75
2023/10/22 06:43:18;;;;;;;7.20;3.20;;;;;;;;;;5065889;28;20032;-75
2023/10/22 06:45:44;;;;;;;9.85;3.60;;;;;;;;;;5063422;28;20047;-75
2023/10/22 06:48:10;;;;;;;5.18;3.30;;;;;;;;;;5066985;28;20068;-74
2023/10/22 06:50:36;;;;;;;7.95;3.33;;;;;;;;;;5065788;28;20029;-75
2023/10/22 06:53:02;;;;;;;7.63;3.05;;;;;;;;;;5067299;28;20394;-74
2023/10/22 06:55:28;;;;;;;4.60;3.00;;;;;;;;;;5068842;28;20032;-74
2023/10/22 06:57:54;;;;;;;5.00;2.67;;;;;;;;;;5063233;28;20041;-75
2023/10/22 07:00:20;;;;;;;3.65;2.60;;;;;;;;;;5064403;28;20101;-74
2023/10/22 07:02:47;;;;;;;5.80;3.20;;;;;;;;;;5065736;28;20117;-74
2023/10/22 07:05:13;;;;;;;6.47;2.90;;;;;;;;;;5059089;28;20048;-74
2023/10/22 07:07:42;;;;;;;7.75;3.40;;;;;;;;;;5064210;28;20061;-74
2023/10/22 07:10:09;;;;;;;6.03;2.90;;;;;;;;;;5061542;28;20041;-74
2023/10/22 07:12:35;;;;;;;5.60;2.50;;;;;;;;;;5060656;28;20041;-74
2023/10/22 07:15:01;;;;;;;8.63;2.55;;;;;;;;;;5060034;28;20041;-75
2023/10/22 07:17:27;;;;;;;7.57;2.70;;;;;;;;;;5058630;28;20029;-75
2023/10/22 07:19:53;;;;;;;7.85;3.15;;;;;;;;;;5062621;28;20090;-74
2023/10/22 07:22:19;;;;;;;4.90;2.90;;;;;;;;;;5060156;28;20448;-75
2023/10/22 07:24:45;;;;;;;5.50;3.38;;;;;;;;;;5059434;28;20445;-75
2023/10/22 07:27:12;;;;;;;6.85;3.30;;;;;;;;;;5064866;28;20041;-75
2023/10/22 07:29:38;;;;;;;6.25;3.20;;;;;;;;;;5062324;28;20044;-74
2023/10/22 07:32:04;;;;;;;8.23;3.50;;;;;;;;;;5062323;28;20041;-74
2023/10/22 07:34:30;;;;;;;4.50;3.40;;;;;;;;;;5061178;28;20028;-75
2023/10/22 07:36:56;;;;;;;7.72;3.47;;;;;;;;;;5062125;28;20393;-75
2023/10/22 07:39:22;;;;;;;7.47;3.38;;;;;;;;;;5062444;28;20028;-74
2023/10/22 07:41:48;;;;;;;6.18;3.67;;;;;;;;;;5066260;28;20043;-75
2023/10/22 07:44:14;;;;;;;9.40;4.07;;;;;;;;;;5061858;28;20066;-74
2023/10/22 07:46:41;;;;;;;9.60;4.18;;;;;;;;;;5060446;28;20508;-74
2023/10/22 07:49:08;;;;;;;8.35;4.00;;;;;;;;;;5062782;28;20089;-74
2023/10/22 07:51:34;;;;;;;7.90;4.18;;;;;;;;;;5064904;28;20502;-75
2023/10/22 07:54:01;;;;;;;8.23;4.10;;;;;;;;;;5064102;28;20122;-75
2023/10/22 07:56:35;;;;;;;8.73;4.28;;;;;;;;;;5061398;28;20543;-75
2023/10/22 07:59:01;;;;;;;6.82;4.45;;;;;;;;;;5062266;28;20063;-75
2023/10/22 08:01:27;;;;;;;7.22;3.85;;;;;;;;;;5064539;28;20501;-75
2023/10/22 08:03:53;;;;;;;6.03;4.05;;;;;;;;;;5064772;28;20119;-75
2023/10/22 08:06:19;;;;;;;7.57;4.85;;;;;;;;;;5062140;28;20112;-75
2023/10/22 08:08:45;;;;;;;7.63;4.15;;;;;;;;;;5063186;28;20029;-75
2023/10/22 08:11:11;;;;;;;7.72;4.22;;;;;;;;;;5057394;28;20037;-74
2023/10/22 08:13:38;;;;;;;9.10;4.20;;;;;;;;;;5060391;28;20044;-75
2023/10/22 08:16:05;;;;;;;7.93;5.07;;;;;;;;;;5064003;28;20037;-74
2023/10/22 08:18:31;;;;;;;8.27;5.05;;;;;;;;;;5058363;28;20033;-72
2023/10/22 08:21:01;;;;;;;11.85;5.32;;;;;;;;;;5061235;28;20065;-72
2023/10/22 08:23:28;;;;;;;8.90;5.00;;;;;;;;;;5063308;28;20121;-73
2023/10/22 08:25:54;;;;;;;8.65;5.22;;;;;;;;;;5065099;28;20033;-72
2023/10/22 08:28:20;;;;;;;9.93;5.18;;;;;;;;;;5059509;28;20091;-74
2023/10/22 08:30:47;;;;;;;8.52;5.30;;;;;;;;;;5059938;28;20037;-73
2023/10/22 08:33:13;;;;;;;7.68;5.45;;;;;;;;;;5062681;28;20052;-72
2023/10/22 08:35:39;;;;;;;9.20;5.15;;;;;;;;;;5063355;28;20394;-73
2023/10/22 08:38:06;;;;;;;9.50;5.25;;;;;;;;;;5059297;28;20037;-72
2023/10/22 08:40:33;;;;;;;8.70;4.80;;;;;;;;;;5061605;28;20116;-72
2023/10/22 08:43:00;;;;;;;11.32;4.75;;;;;;;;;;5063084;28;20487;-71
2023/10/22 08:45:26;;;;;;;9.45;5.13;;;;;;;;;;5063876;28;20044;-72
2023/10/22 08:47:52;;;;;;;7.25;4.55;;;;;;;;;;5071756;28;20028;-72
2023/10/22 08:50:18;;;;;;;7.45;4.78;;;;;;;;;;5078094;28;20043;-71
2023/10/22 08:52:44;;;;;;;7.05;4.35;;;;;;;;;;5074719;28;20040;-72
2023/10/22 08:55:10;;;;;;;10.02;4.65;;;;;;;;;;5072891;28;20440;-72
2023/10/22 08:57:36;;;;;;;6.75;4.57;;;;;;;;;;5074555;28;20032;-72
2023/10/22 09:00:02;;;;;;;6.45;4.13;;;;;;;;;;5070593;28;20036;-72
2023/10/22 09:02:28;;;;;;;6.32;4.40;;;;;;;;;;5073054;28;20593;-73
2023/10/22 09:04:55;;;;;;;5.53;4.30;;;;;;;;;;5065951;28;20042;-74
2023/10/22 09:07:41;;;;;;;6.78;4.38;;;;;;;;;;5073736;28;20045;-73
2023/10/22 09:10:22;;;;;;;8.90;4.40;;;;;;;;;;5061620;28;20075;-73
2023/10/22 09:12:48;;;;;;;8.30;4.32;;;;;;;;;;5067316;28;20045;-72
2023/10/22 09:15:14;;;;;;;6.25;3.95;;;;;;;;;;5061648;28;20044;-72
2023/10/22 09:17:42;;;;;;;4.97;3.78;;;;;;;;;;5059852;28;20036;-71
2023/10/22 09:20:22;;;;;;;5.20;3.60;;;;;;;;;;5072180;28;20045;-72
2023/10/22 09:22:48;;;;;;;4.68;3.67;;;;;;;;;;5057618;28;20047;-72
2023/10/22 09:25:16;;;;;;;7.55;3.88;;;;;;;;;;5071708;28;20115;-71
2023/10/22 09:27:42;;;;;;;8.98;4.35;;;;;;;;;;5067242;28;20072;-71
2023/10/22 09:30:08;;;;;;;4.28;3.55;;;;;;;;;;5071736;28;20040;-71
2023/10/22 09:32:34;;;;;;;7.15;3.63;;;;;;;;;;5066897;28;20098;-70
2023/10/22 09:35:13;;;;;;;7.00;3.75;;;;;;;;;;5070359;28;21026;-71
2023/10/22 09:37:50;;;;;;;7.80;3.78;;;;;;;;;;5065975;28;20068;-71
2023/10/22 09:40:22;;;;;;;8.43;3.90;;;;;;;;;;5070191;28;20044;-71
2023/10/22 09:42:49;;;;;;;8.40;3.42;;;;;;;;;;5100779;22;20050;-70
2023/10/22 09:45:15;;;;;;;7.55;3.80;;;;;;;;;;5091616;28;20035;-70
2023/10/22 09:47:43;;;;;;;8.75;3.92;;;;;;;;;;5069901;28;20118;-70
2023/10/22 09:50:12;;;;;;;9.15;4.38;;;;;;;;;;5090481;28;20047;-70
2023/10/22 09:52:42;;;;;;;5.30;3.67;;;;;;;;;;5075300;28;20043;-71
2023/10/22 09:55:12;;;;;;;6.53;4.35;;;;;;;;;;5076315;28;20122;-71
2023/10/22 09:57:40;;;;;;;7.17;4.10;;;;;;;;;;5092338;28;20110;-71
2023/10/22 10:00:10;;;;;;;5.60;4.07;;;;;;;;;;5093498;28;20589;-70
2023/10/22 10:02:36;;;;;;;7.60;4.30;;;;;;;;;;5092051;28;20040;-70
2023/10/22 10:05:03;;;;;;;8.77;4.20;;;;;;;;;;5078544;28;20040;-70
2023/10/22 10:07:30;;;;;;;5.65;4.15;;;;;;;;;;5092381;28;20036;-70
2023/10/22 10:09:57;;;;;;;6.22;3.95;;;;;;;;;;5089211;28;20816;-70
2023/10/22 10:12:28;;;;;;;7.32;3.92;;;;;;;;;;5091925;28;20043;-70
2023/10/22 10:14:54;;;;;;;7.78;4.55;;;;;;;;;;5092923;28;20044;-70
2023/10/22 10:17:21;;;;;;;8.30;4.70;;;;;;;;;;5091448;28;20036;-70
2023/10/22 10:19:47;;;;;;;8.13;4.30;;;;;;;;;;5091212;28;20155;-70
2023/10/22 10:22:32;;;;;;;8.45;4.53;;;;;;;;;;5091434;28;20090;-70
2023/10/22 10:25:17;;;;;;;7.38;4.28;;;;;;;;;;5092959;28;20647;-70
2023/10/22 10:27:50;;;;;;;5.97;4.32;;;;;;;;;;5068218;28;20039;-70
2023/10/22 10:30:17;;;;;;;6.93;4.47;;;;;;;;;;5092074;28;20036;-70
2023/10/22 10:32:43;;;;;;;9.65;4.90;;;;;;;;;;5073921;28;20079;-71
2023/10/22 10:35:10;;;;;;;6.88;4.50;;;;;;;;;;5049111;28;20123;-70
2023/10/22 10:37:36;;;;;;;6.93;4.13;;;;;;;;;;5081249;28;20497;-70
2023/10/22 10:40:04;;;;;;;6.53;4.65;;;;;;;;;;5092777;28;20111;-70
2023/10/22 10:42:30;;;;;;;7.45;4.07;;;;;;;;;;5081265;28;20059;-70
2023/10/22 10:44:59;;;;;;;6.22;4.25;;;;;;;;;;5090349;28;20040;-70
2023/10/22 10:47:25;;;;;;;6.32;4.00;;;;;;;;;;5075807;28;20050;-70
2023/10/22 10:50:05;;;;;;;6.60;3.40;;;;;;;;;;5091579;28;20124;-69
2023/10/22 10:52:46;;;;;;;6.40;3.92;;;;;;;;;;5090170;28;20520;-71
2023/10/22 10:55:17;;;;;;;7.97;3.83;;;;;;;;;;5090721;28;20035;-71
2023/10/22 10:57:48;;;;;;;7.97;4.10;;;;;;;;;;5089159;28;20118;-70
2023/10/22 11:00:21;;;;;;;7.55;3.80;;;;;;;;;;5074169;28;20478;-70
2023/10/22 11:02:48;;;;;;;6.60;4.10;;;;;;;;;;5090668;28;20036;-71
2023/10/22 11:05:15;;;;;;;7.65;3.53;;;;;;;;;;5076384;28;20490;-71
2023/10/22 11:07:42;;;;;;;6.82;4.05;;;;;;;;;;5074633;28;20521;-71
2023/10/22 11:10:10;;;;;;;5.20;3.03;;;;;;;;;;5090790;28;20064;-71
2023/10/22 11:12:37;;;;;;;7.43;3.40;;;;;;;;;;5090133;28;20047;-72
2023/10/22 11:15:03;;;;;;;6.93;3.60;;;;;;;;;;5086426;28;20393;-70
2023/10/22 11:17:29;;;;;;;5.07;2.88;;;;;;;;;;5081515;28;21036;-70
2023/10/22 11:19:55;;;;;;;3.33;2.95;;;;;;;;;;5086278;28;20160;-70
2023/10/22 11:22:21;;;;;;;4.82;3.22;;;;;;;;;;5082871;28;20497;-71
2023/10/22 11:24:47;;;;;;;7.00;3.10;;;;;;;;;;5066815;28;20055;-71
2023/10/22 11:27:14;;;;;;;6.32;3.03;;;;;;;;;;5080637;28;20035;-71
2023/10/22 11:29:41;;;;;;;6.95;3.10;;;;;;;;;;5082698;28;20393;-71
2023/10/22 11:32:11;;;;;;;4.75;2.30;;;;;;;;;;5061567;28;20050;-71
2023/10/22 11:34:46;;;;;;;3.92;2.47;;;;;;;;;;5079237;28;20039;-71
2023/10/22 11:37:12;;;;;;;5.60;2.35;;;;;;;;;;5068203;28;20513;-71
2023/10/22 11:39:40;;;;;;;5.85;2.30;;;;;;;;;;5091080;28;20421;-71
2023/10/22 11:42:10;;;;;;;3.63;2.17;;;;;;;;;;5090621;28;20048;-72
2023/10/22 11:44:37;;;;;;;4.47;2.28;;;;;;;;;;5085924;28;20071;-72
2023/10/22 11:47:22;;;;;;;6.72;2.00;;;;;;;;;;5091463;28;20127;-72
2023/10/22 11:49:48;;;;;;;4.25;2.10;;;;;;;;;;5082502;28;20075;-72
2023/10/22 11:52:32;;;;;;;4.35;2.10;;;;;;;;;;5091626;28;20040;-72
2023/10/22 11:54:58;;;;;;;3.88;2.13;;;;;;;;;;5089601;28;20074;-72
2023/10/22 11:57:24;;;;;;;4.32;1.85;;;;;;;;;;5088419;28;20116;-72
2023/10/22 11:59:50;;;;;;;3.90;2.30;;;;;;;;;;5085066;28;20075;-72
2023/10/22 12:02:16;;;;;;;5.65;1.95;;;;;;;;;;5071497;28;20062;-72
2023/10/22 12:04:42;;;;;;;6.68;1.95;;;;;;;;;;5078164;28;20089;-72
2023/10/22 12:07:08;;;;;;;4.45;1.70;;;;;;;;;;5083107;28;20032;-72
2023/10/22 12:09:34;;;;;;;3.42;1.83;;;;;;;;;;5088672;28;20032;-72
2023/10/22 12:12:00;;;;;;;4.25;1.83;;;;;;;;;;5085973;28;20383;-71
2023/10/22 12:14:26;;;;;;;3.10;1.38;;;;;;;;;;5089520;28;20046;-70
2023/10/22 12:16:52;;;;;;;3.97;1.52;;;;;;;;;;5085465;28;20039;-70
2023/10/22 12:19:18;;;;;;;3.55;1.63;;;;;;;;;;5093621;28;20032;-71
2023/10/22 12:21:44;;;;;;;3.38;1.20;;;;;;;;;;5095776;28;20039;-71
2023/10/22 12:24:10;;;;;;;2.67;1.27;;;;;;;;;;5095053;28;20039;-71
2023/10/22 12:26:36;;;;;;;2.33;1.00;;;;;;;;;;5093863;28;20032;-71
2023/10/22 12:29:02;;;;;;;3.40;1.13;;;;;;;;;;5095897;28;20036;-71
2023/10/22 12:31:28;;;;;;;1.40;0.90;;;;;;;;;;5095396;28;20040;-71
2023/10/22 12:33:54;;;;;;;0.90;0.50;;;;;;;;;;5094135;28;20035;-71
2023/10/22 12:36:20;;;;;;;2.90;1.00;;;;;;;;;;5095924;28;20070;-71
2023/10/22 12:38:46;;;;;;;3.28;0.88;;;;;;;;;;5094491;28;20095;-72
2023/10/22 12:41:12;;;;;;;2.05;0.60;;;;;;;;;;5093923;28;20120;-71
2023/10/22 12:43:38;;;;;;;2.10;0.70;;;;;;;;;;5095006;28;20570;-71
2023/10/22 12:46:04;;;;;;;3.85;0.80;;;;;;;;;;5094970;28;20070;-71
2023/10/22 12:48:30;;;;;;;2.17;0.73;;;;;;;;;;5076336;28;20051;-71
2023/10/22 12:50:56;;;;;;;3.50;0.85;;;;;;;;;;5077646;28;20074;-71
2023/10/22 12:53:22;;;;;;;1.80;0.90;;;;;;;;;;5094115;28;20039;-71
2023/10/22 12:55:52;;;;;;;2.30;0.77;;;;;;;;;;5093785;28;20043;-72
2023/10/22 12:58:18;;;;;;;2.75;0.88;;;;;;;;;;5091418;28;20048;-71
2023/10/22 13:00:45;;;;;;;7.03;0.90;;;;;;;;;;5093947;28;20032;-71
2023/10/22 13:03:11;;;;;;;1.60;0.80;;;;;;;;;;5086262;28;20055;-71
2023/10/22 13:05:37;;;;;;;2.83;0.95;;;;;;;;;;5090502;28;20036;-71
2023/10/22 13:08:04;;;;;;;2.15;1.13;;;;;;;;;;5085913;28;20616;-71
2023/10/22 13:10:33;;;;;;;1.98;0.80;;;;;;;;;;5097152;28;20040;-72
2023/10/22 13:12:59;;;;;;;2.00;0.70;;;;;;;;;;5090434;28;20048;-71
2023/10/22 13:15:26;;;;;;;1.80;0.98;;;;;;;;;;5093972;28;20040;-71
2023/10/22 13:17:52;;;;;;;2.30;0.98;;;;;;;;;;5092269;28;20070;-71
2023/10/22 13:20:18;;;;;;;3.28;0.80;;;;;;;;;;5074800;28;20043;-71
2023/10/22 13:22:44;;;;;;;1.75;1.25;;;;;;;;;;5091593;28;20044;-72
2023/10/22 13:25:10;;;;;;;1.08;0.60;;;;;;;;;;5077028;28;20048;-72
2023/10/22 13:27:36;;;;;;;2.85;0.65;;;;;;;;;;5093630;28;20101;-72
2023/10/22 13:30:02;;;;;;;3.22;0.80;;;;;;;;;;5094075;28;20101;-72
2023/10/22 13:32:28;;;;;;;2.67;0.73;;;;;;;;;;5093515;28;20040;-71
2023/10/22 13:34:54;;;;;;;0.60;0.38;;;;;;;;;;5094015;28;20036;-71
2023/10/22 13:37:21;;;;;;;3.17;0.73;;;;;;;;;;5094013;28;20051;-71
2023/10/22 13:39:47;;;;;;;1.48;0.57;;;;;;;;;;5089814;28;20032;-71
2023/10/22 13:42:13;;;;;;;2.47;0.80;;;;;;;;;;5093230;28;20119;-71
2023/10/22 13:44:39;;;;;;;2.17;0.70;;;;;;;;;;5059402;28;20051;-71
2023/10/22 13:47:05;;;;;;;1.17;0.70;;;;;;;;;;5092401;28;20040;-72
2023/10/22 13:49:31;;;;;;;1.98;0.80;;;;;;;;;;5093835;28;20181;-72
2023/10/22 13:51:57;;;;;;;0.75;0.63;;;;;;;;;;5092841;28;20040;-72
2023/10/22 13:54:23;;;;;;;2.13;0.73;;;;;;;;;;5091747;28;20043;-72
2023/10/22 13:56:52;;;;;;;4.57;0.82;;;;;;;;;;5093485;28;20489;-72
2023/10/22 13:59:18;;;;;;;3.47;0.70;;;;;;;;;;5092127;28;20513;-72
2023/10/22 14:01:44;;;;;;;2.70;0.80;;;;;;;;;;5082188;28;20107;-72
2023/10/22 14:04:10;;;;;;;1.45;0.70;;;;;;;;;;5085838;28;20136;-72
2023/10/22 14:06:36;;;;;;;1.45;0.63;;;;;;;;;;5082283;28;21206;-72
2023/10/22 14:09:02;;;;;;;1.35;0.52;;;;;;;;;;5079270;28;20121;-72
2023/10/22 14:11:28;;;;;;;1.38;0.60;;;;;;;;;;5080961;28;20032;-72
2023/10/22 14:13:57;;;;;;;1.48;0.60;;;;;;;;;;5083101;28;20131;-72
2023/10/22 14:16:23;;;;;;;0.88;0.60;;;;;;;;;;5085588;28;20119;-72
2023/10/22 14:18:49;;;;;;;2.75;1.00;;;;;;;;;;5078678;28;20040;-72
2023/10/22 14:21:15;;;;;;;4.18;0.90;;;;;;;;;;5092225;28;20036;-71
2023/10/22 14:23:42;;;;;;;3.50;0.60;;;;;;;;;;5091789;28;20043;-72
2023/10/22 14:26:08;;;;;;;1.10;0.70;;;;;;;;;;5092784;28;20032;-72
2023/10/22 14:28:34;;;;;;;2.40;0.80;;;;;;;;;;5091265;28;20043;-72
2023/10/22 14:31:04;;;;;;;1.48;0.80;;;;;;;;;;5091430;28;20478;-72
2023/10/22 14:33:30;;;;;;;1.10;0.60;;;;;;;;;;5089882;28;20035;-72
2023/10/22 14:36:06;;;;;;;2.72;0.77;;;;;;;;;;5092717;28;20294;-72
2023/10/22 14:38:32;;;;;;;2.05;0.77;;;;;;;;;;5090392;28;20494;-72
2023/10/22 14:41:01;;;;;;;2.67;0.88;;;;;;;;;;5084178;28;20040;-72
2023/10/22 14:43:27;;;;;;;1.58;0.98;;;;;;;;;;5091406;28;20047;-72